Time;durP1;ratioP1;P1;durP2;ratioP2;P2;SDS_P1;SDS_P2;PMS_P1;PMS_P2;Temp;Humidity;BMP_temperature;BMP_pressure;BME280_temperature;BME280_humidity;BME280_pressure;Samples;Min_cycle;Max_cycle;Signal;HPM_P1;HPM_P2
2021/05/20 00:01:53;;;;;;;4.45;1.77;;;;;;;;;;5056294;28;20047;-70
2021/05/20 00:04:20;;;;;;;1.58;1.48;;;;;;;;;;5054866;28;20025;-72
2021/05/20 00:06:46;;;;;;;1.25;1.15;;;;;;;;;;5054811;28;20032;-71
2021/05/20 00:09:13;;;;;;;2.00;1.50;;;;;;;;;;5054796;28;20039;-71
2021/05/20 00:11:39;;;;;;;1.52;1.42;;;;;;;;;;5056046;28;20033;-70
2021/05/20 00:14:06;;;;;;;7.78;1.77;;;;;;;;;;5055973;28;20521;-70
2021/05/20 00:16:32;;;;;;;3.25;1.15;;;;;;;;;;5055573;28;20056;-70
2021/05/20 00:18:58;;;;;;;1.50;1.40;;;;;;;;;;5055941;28;20104;-70
2021/05/20 00:21:24;;;;;;;1.45;1.30;;;;;;;;;;5055902;28;20032;-71
2021/05/20 00:23:50;;;;;;;1.38;1.27;;;;;;;;;;5054514;28;20075;-72
2021/05/20 00:26:17;;;;;;;3.67;2.40;;;;;;;;;;5054123;28;20132;-71
2021/05/20 00:28:43;;;;;;;1.80;1.70;;;;;;;;;;5055739;28;20064;-72
2021/05/20 00:31:09;;;;;;;1.60;1.50;;;;;;;;;;5054367;28;20123;-71
2021/05/20 00:33:35;;;;;;;1.70;1.60;;;;;;;;;;5055688;28;20028;-71
2021/05/20 00:36:02;;;;;;;1.20;1.10;;;;;;;;;;5055567;28;20029;-71
2021/05/20 00:38:28;;;;;;;1.50;1.40;;;;;;;;;;5055624;28;20074;-70
2021/05/20 00:40:58;;;;;;;2.53;1.50;;;;;;;;;;5055526;28;20032;-70
2021/05/20 00:43:25;;;;;;;1.60;1.50;;;;;;;;;;5055722;28;20029;-70
2021/05/20 00:45:51;;;;;;;1.42;1.30;;;;;;;;;;5053997;28;20584;-70
2021/05/20 00:48:17;;;;;;;3.03;1.42;;;;;;;;;;5055443;28;20033;-73
2021/05/20 00:50:43;;;;;;;1.63;1.45;;;;;;;;;;5055299;28;20021;-71
2021/05/20 00:53:11;;;;;;;1.30;1.20;;;;;;;;;;5053923;28;20025;-70
2021/05/20 00:55:38;;;;;;;1.15;1.15;;;;;;;;;;5055224;28;20029;-74
2021/05/20 00:58:05;;;;;;;1.73;1.63;;;;;;;;;;5055217;28;20047;-69
2021/05/20 01:00:31;;;;;;;1.30;1.20;;;;;;;;;;5053450;28;20036;-70
2021/05/20 01:02:58;;;;;;;1.05;1.05;;;;;;;;;;5053857;28;20484;-70
2021/05/20 01:05:24;;;;;;;1.73;1.63;;;;;;;;;;5054986;28;20064;-71
2021/05/20 01:07:50;;;;;;;1.60;1.50;;;;;;;;;;5053411;28;20041;-72
2021/05/20 01:10:17;;;;;;;3.28;1.85;;;;;;;;;;5054911;28;20535;-72
2021/05/20 01:12:43;;;;;;;4.28;2.30;;;;;;;;;;5054914;28;20025;-71
2021/05/20 01:15:25;;;;;;;2.28;2.13;;;;;;;;;;5054619;28;20040;-71
2021/05/20 01:17:58;;;;;;;2.83;2.63;;;;;;;;;;5054788;28;20029;-68
2021/05/20 01:20:35;;;;;;;5.13;4.35;;;;;;;;;;5054854;28;20029;-70
2021/05/20 01:23:22;;;;;;;3.90;3.55;;;;;;;;;;5054479;28;20545;-70
2021/05/20 01:25:49;;;;;;;5.38;4.00;;;;;;;;;;5054696;28;20070;-69
2021/05/20 01:28:16;;;;;;;3.78;3.05;;;;;;;;;;5054704;28;20043;-70
2021/05/20 01:30:43;;;;;;;3.55;3.25;;;;;;;;;;5054569;28;20029;-71
2021/05/20 01:33:10;;;;;;;3.72;3.38;;;;;;;;;;5053231;28;20029;-70
2021/05/20 01:35:36;;;;;;;4.00;3.58;;;;;;;;;;5054512;28;20070;-72
2021/05/20 01:41:00;;;;;;;4.07;3.20;;;;;;;;;;5054475;28;20555;-71
2021/05/20 01:43:27;;;;;;;5.07;3.92;;;;;;;;;;5053115;28;20412;-68
2021/05/20 01:46:00;;;;;;;4.45;3.70;;;;;;;;;;5054210;28;20031;-69
2021/05/20 01:48:26;;;;;;;4.90;4.25;;;;;;;;;;5054380;28;20060;-70
2021/05/20 01:50:52;;;;;;;5.18;4.43;;;;;;;;;;5054203;28;20025;-70
2021/05/20 01:53:19;;;;;;;6.68;4.75;;;;;;;;;;5052827;28;20053;-71
2021/05/20 01:55:49;;;;;;;6.38;4.45;;;;;;;;;;5054085;28;20029;-70
2021/05/20 01:58:15;;;;;;;5.80;4.53;;;;;;;;;;5053891;28;20091;-71
2021/05/20 02:00:41;;;;;;;5.13;4.63;;;;;;;;;;5052689;28;20116;-71
2021/05/20 02:03:07;;;;;;;5.75;4.88;;;;;;;;;;5054000;28;20036;-69
2021/05/20 02:05:34;;;;;;;6.05;4.95;;;;;;;;;;5053888;28;20027;-71
2021/05/20 02:08:00;;;;;;;5.20;4.13;;;;;;;;;;5053559;28;20508;-71
2021/05/20 02:10:26;;;;;;;5.55;4.03;;;;;;;;;;5051972;28;20133;-69
2021/05/20 02:12:52;;;;;;;5.40;4.32;;;;;;;;;;5052010;28;20122;-69
2021/05/20 02:15:18;;;;;;;7.57;4.00;;;;;;;;;;5053581;28;20516;-69
2021/05/20 02:17:45;;;;;;;6.50;4.45;;;;;;;;;;5053705;28;20033;-69
2021/05/20 02:20:11;;;;;;;4.57;4.10;;;;;;;;;;5053884;28;20032;-70
2021/05/20 02:22:38;;;;;;;4.85;4.00;;;;;;;;;;5053596;28;20107;-70
2021/05/20 02:25:04;;;;;;;5.03;3.95;;;;;;;;;;5052242;28;20032;-71
2021/05/20 02:27:31;;;;;;;7.40;4.15;;;;;;;;;;5052118;28;20028;-70
2021/05/20 02:29:57;;;;;;;5.60;4.05;;;;;;;;;;5051871;28;20040;-71
2021/05/20 02:32:23;;;;;;;9.02;3.85;;;;;;;;;;5053396;28;20032;-70
2021/05/20 02:34:50;;;;;;;3.78;3.33;;;;;;;;;;5053640;28;20027;-70
2021/05/20 02:37:16;;;;;;;5.55;3.50;;;;;;;;;;5053441;28;20481;-72
2021/05/20 02:39:42;;;;;;;6.80;4.05;;;;;;;;;;5053313;28;20029;-70
2021/05/20 02:42:08;;;;;;;7.18;3.85;;;;;;;;;;5053261;28;20021;-72
2021/05/20 02:44:34;;;;;;;5.70;3.85;;;;;;;;;;5051976;28;20025;-70
2021/05/20 02:47:01;;;;;;;4.60;3.60;;;;;;;;;;5051786;28;20409;-70
2021/05/20 02:49:27;;;;;;;5.63;3.63;;;;;;;;;;5051881;28;20033;-71
2021/05/20 02:51:53;;;;;;;4.22;3.10;;;;;;;;;;5051822;28;20457;-70
2021/05/20 02:54:20;;;;;;;4.30;2.88;;;;;;;;;;5053101;28;20051;-70
2021/05/20 02:56:46;;;;;;;4.57;3.38;;;;;;;;;;5051759;28;20029;-71
2021/05/20 02:59:12;;;;;;;4.05;2.65;;;;;;;;;;5053079;28;20136;-73
2021/05/20 03:01:44;;;;;;;3.03;2.83;;;;;;;;;;5053050;28;20116;-71
2021/05/20 03:04:10;;;;;;;2.58;2.33;;;;;;;;;;5053089;28;20497;-70
2021/05/20 03:06:36;;;;;;;2.47;2.28;;;;;;;;;;5051585;28;20080;-70
2021/05/20 03:09:05;;;;;;;2.70;2.50;;;;;;;;;;5053033;28;20025;-71
2021/05/20 03:11:32;;;;;;;4.25;3.00;;;;;;;;;;5051521;28;20032;-70
2021/05/20 03:13:58;;;;;;;2.83;2.63;;;;;;;;;;5051559;28;20055;-72
2021/05/20 03:16:24;;;;;;;3.00;2.70;;;;;;;;;;5052910;28;20045;-71
2021/05/20 03:18:51;;;;;;;2.55;2.35;;;;;;;;;;5051546;28;20060;-72
2021/05/20 03:21:17;;;;;;;2.83;2.53;;;;;;;;;;5052822;28;20021;-70
2021/05/20 03:23:44;;;;;;;2.35;2.17;;;;;;;;;;5054684;28;20033;-73
2021/05/20 03:26:10;;;;;;;3.13;2.35;;;;;;;;;;5056847;28;20033;-71
2021/05/20 03:28:36;;;;;;;2.70;2.50;;;;;;;;;;5056932;28;20378;-72
2021/05/20 03:31:02;;;;;;;2.25;1.98;;;;;;;;;;5056508;28;20024;-73
2021/05/20 03:33:28;;;;;;;2.95;2.05;;;;;;;;;;5055502;28;20028;-72
2021/05/20 03:35:57;;;;;;;4.15;1.90;;;;;;;;;;5055145;28;20029;-70
2021/05/20 03:38:24;;;;;;;2.00;1.90;;;;;;;;;;5056770;28;20026;-71
2021/05/20 03:40:50;;;;;;;2.75;1.88;;;;;;;;;;5055383;28;20131;-72
2021/05/20 03:43:17;;;;;;;3.38;1.90;;;;;;;;;;5056665;28;20024;-70
2021/05/20 03:45:43;;;;;;;1.80;1.70;;;;;;;;;;5055240;28;20021;-72
2021/05/20 03:48:09;;;;;;;3.25;2.17;;;;;;;;;;5056528;28;20049;-70
2021/05/20 03:50:35;;;;;;;3.00;1.58;;;;;;;;;;5056505;28;20343;-71
2021/05/20 03:53:02;;;;;;;2.17;1.85;;;;;;;;;;5056494;28;20033;-72
2021/05/20 03:55:28;;;;;;;1.92;1.38;;;;;;;;;;5055051;28;20547;-72
2021/05/20 03:57:54;;;;;;;1.50;1.40;;;;;;;;;;5056381;28;20373;-71
2021/05/20 04:00:21;;;;;;;2.05;1.50;;;;;;;;;;5054994;28;20456;-69
2021/05/20 04:02:48;;;;;;;1.90;1.58;;;;;;;;;;5055016;28;20040;-71
2021/05/20 04:05:15;;;;;;;1.95;1.30;;;;;;;;;;5054898;28;20025;-71
2021/05/20 04:07:41;;;;;;;1.50;1.40;;;;;;;;;;5056052;28;20033;-70
2021/05/20 04:10:08;;;;;;;2.65;1.98;;;;;;;;;;5056185;28;20469;-71
2021/05/20 04:12:34;;;;;;;2.38;1.40;;;;;;;;;;5056048;28;20021;-71
2021/05/20 04:15:00;;;;;;;2.08;1.70;;;;;;;;;;5056000;28;20105;-71
2021/05/20 04:17:26;;;;;;;1.05;0.98;;;;;;;;;;5056245;28;20068;-71
2021/05/20 04:19:53;;;;;;;1.23;1.20;;;;;;;;;;5055684;28;20104;-69
2021/05/20 04:22:19;;;;;;;1.67;1.58;;;;;;;;;;5055915;28;20036;-71
2021/05/20 04:24:45;;;;;;;1.52;1.30;;;;;;;;;;5054476;28;20024;-70
2021/05/20 04:27:11;;;;;;;2.05;1.10;;;;;;;;;;5055708;28;20040;-71
2021/05/20 04:29:37;;;;;;;1.23;1.23;;;;;;;;;;5055792;28;20033;-72
2021/05/20 04:32:04;;;;;;;1.60;1.50;;;;;;;;;;5055664;28;20487;-70
2021/05/20 04:34:30;;;;;;;1.50;1.40;;;;;;;;;;5053611;28;20432;-72
2021/05/20 04:36:56;;;;;;;1.60;1.50;;;;;;;;;;5055568;28;20114;-68
2021/05/20 04:39:23;;;;;;;2.50;1.55;;;;;;;;;;5055580;28;20025;-70
2021/05/20 04:41:49;;;;;;;1.33;1.23;;;;;;;;;;5055484;28;20084;-72
2021/05/20 04:44:15;;;;;;;1.15;1.10;;;;;;;;;;5054136;28;20044;-70
2021/05/20 04:46:41;;;;;;;3.13;1.20;;;;;;;;;;5055506;28;20067;-71
2021/05/20 04:49:13;;;;;;;1.02;0.88;;;;;;;;;;5055122;28;20470;-70
2021/05/20 04:51:40;;;;;;;3.13;1.52;;;;;;;;;;5055356;28;20082;-68
2021/05/20 04:54:06;;;;;;;0.95;0.95;;;;;;;;;;5055241;28;20039;-70
2021/05/20 04:56:33;;;;;;;1.75;1.63;;;;;;;;;;5055535;28;20029;-69
2021/05/20 04:58:59;;;;;;;1.13;1.02;;;;;;;;;;5055231;28;20021;-71
2021/05/20 05:01:25;;;;;;;1.33;1.20;;;;;;;;;;5053813;28;20021;-71
2021/05/20 05:03:52;;;;;;;1.00;1.00;;;;;;;;;;5055130;28;20037;-69
2021/05/20 05:06:18;;;;;;;1.42;1.33;;;;;;;;;;5054814;28;20035;-71
2021/05/20 05:08:44;;;;;;;2.55;1.13;;;;;;;;;;5054978;28;20056;-73
2021/05/20 05:11:10;;;;;;;3.05;1.73;;;;;;;;;;5053644;28;20025;-69
2021/05/20 05:13:36;;;;;;;2.83;1.50;;;;;;;;;;5054981;28;20052;-69
2021/05/20 05:16:03;;;;;;;1.70;1.60;;;;;;;;;;5054567;28;20174;-70
2021/05/20 05:18:29;;;;;;;1.80;1.23;;;;;;;;;;5055122;28;20056;-70
2021/05/20 05:20:55;;;;;;;1.83;1.35;;;;;;;;;;5053460;28;20060;-71
2021/05/20 05:23:21;;;;;;;2.78;1.38;;;;;;;;;;5054733;28;20027;-70
2021/05/20 05:25:48;;;;;;;1.70;1.60;;;;;;;;;;5054718;28;20086;-68
2021/05/20 05:28:15;;;;;;;2.20;1.73;;;;;;;;;;5054623;28;20025;-69
2021/05/20 05:30:41;;;;;;;1.52;1.42;;;;;;;;;;5054130;28;20533;-70
2021/05/20 05:33:07;;;;;;;2.17;1.75;;;;;;;;;;5054235;28;20484;-70
2021/05/20 05:35:33;;;;;;;1.83;1.73;;;;;;;;;;5053049;28;20024;-71
2021/05/20 05:38:00;;;;;;;1.30;1.20;;;;;;;;;;5054604;28;20040;-71
2021/05/20 05:40:26;;;;;;;1.02;0.93;;;;;;;;;;5052962;28;20150;-69
2021/05/20 05:42:52;;;;;;;1.17;1.08;;;;;;;;;;5054345;28;20025;-70
2021/05/20 05:45:18;;;;;;;1.05;1.05;;;;;;;;;;5053563;28;20095;-70
2021/05/20 05:47:45;;;;;;;1.20;1.10;;;;;;;;;;5051993;28;20021;-70
2021/05/20 05:50:13;;;;;;;0.77;0.77;;;;;;;;;;5054225;28;20107;-70
2021/05/20 05:52:39;;;;;;;0.98;0.98;;;;;;;;;;5054226;28;20025;-71
2021/05/20 05:55:07;;;;;;;1.63;1.27;;;;;;;;;;5054069;28;20017;-72
2021/05/20 05:57:33;;;;;;;1.30;1.20;;;;;;;;;;5052731;28;20115;-72
2021/05/20 06:00:00;;;;;;;1.50;1.10;;;;;;;;;;5052779;28;20107;-70
2021/05/20 06:02:27;;;;;;;1.95;1.60;;;;;;;;;;5053937;28;20070;-72
2021/05/20 06:04:53;;;;;;;1.58;1.48;;;;;;;;;;5054052;28;20061;-70
2021/05/20 06:07:20;;;;;;;1.92;1.83;;;;;;;;;;5052432;28;20441;-70
2021/05/20 06:09:46;;;;;;;2.15;1.92;;;;;;;;;;5050440;28;20513;-70
2021/05/20 06:12:12;;;;;;;5.65;3.60;;;;;;;;;;5053497;28;20044;-72
2021/05/20 06:14:40;;;;;;;4.60;3.17;;;;;;;;;;5054016;28;20371;-71
2021/05/20 06:17:07;;;;;;;4.63;3.47;;;;;;;;;;5053229;28;20056;-71
2021/05/20 06:19:34;;;;;;;2.53;2.03;;;;;;;;;;5053749;28;20029;-71
2021/05/20 06:22:00;;;;;;;2.50;2.13;;;;;;;;;;5036862;28;20099;-70
2021/05/20 06:24:26;;;;;;;1.70;1.60;;;;;;;;;;5035690;28;20017;-71
2021/05/20 06:26:52;;;;;;;1.83;1.73;;;;;;;;;;5035548;28;20037;-70
2021/05/20 06:29:19;;;;;;;1.85;1.75;;;;;;;;;;5053458;28;20033;-71
2021/05/20 06:31:45;;;;;;;1.40;1.40;;;;;;;;;;5053365;28;20104;-70
2021/05/20 06:34:11;;;;;;;1.80;1.70;;;;;;;;;;5053361;28;20033;-69
2021/05/20 06:36:37;;;;;;;2.95;2.13;;;;;;;;;;5035429;28;20573;-69
2021/05/20 06:39:08;;;;;;;2.72;2.38;;;;;;;;;;5035274;28;20017;-71
2021/05/20 06:41:34;;;;;;;2.97;2.38;;;;;;;;;;5053369;28;20025;-67
2021/05/20 06:44:01;;;;;;;4.03;3.10;;;;;;;;;;5053239;28;20425;-70
2021/05/20 06:46:27;;;;;;;5.65;3.42;;;;;;;;;;5053113;28;20025;-70
2021/05/20 06:48:54;;;;;;;10.52;6.00;;;;;;;;;;5052875;28;20037;-69
2021/05/20 06:51:20;;;;;;;6.68;4.90;;;;;;;;;;5035141;28;20131;-71
2021/05/20 06:53:48;;;;;;;5.18;3.35;;;;;;;;;;5051555;28;20025;-70
2021/05/20 06:56:19;;;;;;;3.90;2.20;;;;;;;;;;5050831;28;20033;-69
2021/05/20 07:01:30;;;;;;;1.98;1.80;;;;;;;;;;5051260;28;20082;-71
2021/05/20 07:03:56;;;;;;;1.88;1.60;;;;;;;;;;5052637;28;20484;-71
2021/05/20 07:06:23;;;;;;;2.70;2.47;;;;;;;;;;5051461;28;20075;-73
2021/05/20 07:08:50;;;;;;;3.60;2.70;;;;;;;;;;5052924;28;20029;-73
2021/05/20 07:11:16;;;;;;;4.45;3.22;;;;;;;;;;5051397;28;20073;-72
2021/05/20 07:13:43;;;;;;;3.90;2.78;;;;;;;;;;5051649;28;20420;-72
2021/05/20 07:16:09;;;;;;;3.92;2.08;;;;;;;;;;5051106;28;20134;-72
2021/05/20 07:18:37;;;;;;;1.63;1.48;;;;;;;;;;5052596;28;20456;-71
2021/05/20 07:21:03;;;;;;;1.20;1.10;;;;;;;;;;5052924;28;20021;-74
2021/05/20 07:23:30;;;;;;;2.17;1.17;;;;;;;;;;5052706;28;20025;-75
2021/05/20 07:25:56;;;;;;;1.40;0.93;;;;;;;;;;5051459;28;20033;-70
2021/05/20 07:28:22;;;;;;;1.63;1.20;;;;;;;;;;5052694;28;20108;-71
2021/05/20 07:30:49;;;;;;;1.50;1.17;;;;;;;;;;5051624;28;20032;-72
2021/05/20 07:33:15;;;;;;;1.30;0.80;;;;;;;;;;5051484;28;20075;-70
2021/05/20 07:35:41;;;;;;;1.85;1.75;;;;;;;;;;5051584;28;20040;-70
2021/05/20 07:38:08;;;;;;;2.20;1.50;;;;;;;;;;5052374;28;20529;-74
2021/05/20 07:40:34;;;;;;;4.78;2.67;;;;;;;;;;5051075;28;20075;-71
2021/05/20 07:43:00;;;;;;;1.98;1.83;;;;;;;;;;5051277;28;20029;-72
2021/05/20 07:45:27;;;;;;;5.32;2.58;;;;;;;;;;5052523;28;20033;-70
2021/05/20 07:47:53;;;;;;;4.43;3.30;;;;;;;;;;5051152;28;20466;-72
2021/05/20 07:50:19;;;;;;;8.07;4.03;;;;;;;;;;5051214;28;20052;-73
2021/05/20 07:52:45;;;;;;;2.42;2.22;;;;;;;;;;5052795;28;20166;-72
2021/05/20 07:55:12;;;;;;;2.58;2.35;;;;;;;;;;5052436;28;20099;-74
2021/05/20 07:57:38;;;;;;;2.50;2.30;;;;;;;;;;5051192;28;20043;-74
2021/05/20 08:00:06;;;;;;;3.47;2.65;;;;;;;;;;5051131;28;20025;-71
2021/05/20 08:02:39;;;;;;;2.10;1.90;;;;;;;;;;5051135;28;20116;-72
2021/05/20 08:05:08;;;;;;;2.10;1.90;;;;;;;;;;5052464;28;20025;-72
2021/05/20 08:07:46;;;;;;;2.40;2.20;;;;;;;;;;5052410;28;20029;-73
2021/05/20 08:12:45;;;;;;;1.73;1.63;;;;;;;;;;5055486;28;20063;-71
2021/05/20 08:15:12;;;;;;;2.95;1.55;;;;;;;;;;5062376;28;20033;-73
2021/05/20 08:17:38;;;;;;;2.00;1.90;;;;;;;;;;5075889;28;20036;-73
2021/05/20 08:20:05;;;;;;;3.90;2.05;;;;;;;;;;5076043;28;20071;-70
2021/05/20 08:22:32;;;;;;;1.27;1.10;;;;;;;;;;5075818;28;20027;-68
2021/05/20 08:24:58;;;;;;;1.45;1.35;;;;;;;;;;5075880;28;20355;-70
2021/05/20 08:27:24;;;;;;;2.38;2.17;;;;;;;;;;5057598;28;20128;-72
2021/05/20 08:29:51;;;;;;;2.30;2.10;;;;;;;;;;5057656;28;20039;-70
2021/05/20 08:32:17;;;;;;;5.35;2.05;;;;;;;;;;5057771;28;20016;-70
2021/05/20 08:34:43;;;;;;;11.40;3.38;;;;;;;;;;5052947;28;20063;-72
2021/05/20 08:37:10;;;;;;;11.50;3.42;;;;;;;;;;5065083;28;20028;-71
2021/05/20 08:39:37;;;;;;;3.03;2.08;;;;;;;;;;5055530;28;20035;-72
2021/05/20 08:42:03;;;;;;;2.67;2.42;;;;;;;;;;5055497;28;20017;-69
2021/05/20 08:44:30;;;;;;;2.30;1.65;;;;;;;;;;5054020;28;20060;-71
2021/05/20 08:46:59;;;;;;;7.00;2.88;;;;;;;;;;5055210;28;20025;-71
2021/05/20 08:49:26;;;;;;;6.20;3.58;;;;;;;;;;5053968;28;20021;-73
2021/05/20 08:51:52;;;;;;;4.47;2.22;;;;;;;;;;5055307;28;20017;-71
2021/05/20 08:54:21;;;;;;;4.55;2.40;;;;;;;;;;5053904;28;20021;-72
2021/05/20 08:56:48;;;;;;;2.65;2.45;;;;;;;;;;5055083;28;20127;-72
2021/05/20 08:59:15;;;;;;;2.28;2.08;;;;;;;;;;5053822;28;20101;-70
2021/05/20 09:01:43;;;;;;;1.45;1.35;;;;;;;;;;5055073;28;20041;-68
2021/05/20 09:04:09;;;;;;;2.40;1.73;;;;;;;;;;5053674;28;20083;-69
2021/05/20 09:06:36;;;;;;;1.73;1.63;;;;;;;;;;5053336;28;20120;-70
2021/05/20 09:09:03;;;;;;;2.20;2.00;;;;;;;;;;5054644;28;20377;-71
2021/05/20 09:11:30;;;;;;;1.45;1.10;;;;;;;;;;5053490;28;20021;-71
2021/05/20 09:14:02;;;;;;;4.03;2.08;;;;;;;;;;5053480;28;20154;-71
2021/05/20 09:16:28;;;;;;;4.88;3.08;;;;;;;;;;5054280;28;20053;-69
2021/05/20 09:18:54;;;;;;;2.88;2.20;;;;;;;;;;5054657;28;20029;-68
2021/05/20 09:21:20;;;;;;;1.92;1.80;;;;;;;;;;5054616;28;20111;-67
2021/05/20 09:23:47;;;;;;;4.53;2.65;;;;;;;;;;5053226;28;20063;-70
2021/05/20 09:26:14;;;;;;;4.07;2.50;;;;;;;;;;5054511;28;20079;-70
2021/05/20 09:28:42;;;;;;;2.35;1.90;;;;;;;;;;5054100;28;20025;-68
2021/05/20 09:31:09;;;;;;;1.25;1.20;;;;;;;;;;5054399;28;20422;-71
2021/05/20 09:33:35;;;;;;;1.58;1.48;;;;;;;;;;5053089;28;20119;-67
2021/05/20 09:36:02;;;;;;;1.63;1.52;;;;;;;;;;5054291;28;20462;-66
2021/05/20 09:38:28;;;;;;;1.35;1.35;;;;;;;;;;5054323;28;20033;-69
2021/05/20 09:41:03;;;;;;;1.88;1.67;;;;;;;;;;5054347;28;20032;-69
2021/05/20 09:43:34;;;;;;;1.58;1.38;;;;;;;;;;5052799;28;20079;-70
2021/05/20 09:46:02;;;;;;;1.90;1.55;;;;;;;;;;5054306;28;20036;-71
2021/05/20 09:48:38;;;;;;;1.88;1.77;;;;;;;;;;5052592;28;20033;-69
2021/05/20 09:51:05;;;;;;;3.05;2.05;;;;;;;;;;5052600;28;20028;-69
2021/05/20 09:53:32;;;;;;;2.00;1.55;;;;;;;;;;5054215;28;20490;-70
2021/05/20 09:55:59;;;;;;;1.77;1.40;;;;;;;;;;5053941;28;20485;-71
2021/05/20 09:58:27;;;;;;;3.00;2.50;;;;;;;;;;5053810;28;20021;-70
2021/05/20 10:00:56;;;;;;;1.83;1.73;;;;;;;;;;5053830;28;20117;-71
2021/05/20 10:03:23;;;;;;;1.67;1.58;;;;;;;;;;5054097;28;20639;-71
2021/05/20 10:05:53;;;;;;;2.28;2.00;;;;;;;;;;5053773;28;20021;-69
2021/05/20 10:08:21;;;;;;;3.10;2.40;;;;;;;;;;5052311;28;20028;-69
2021/05/20 10:10:48;;;;;;;2.90;2.28;;;;;;;;;;5053605;28;20052;-69
2021/05/20 10:13:17;;;;;;;2.83;2.60;;;;;;;;;;5053764;28;20021;-71
2021/05/20 10:15:44;;;;;;;3.03;2.63;;;;;;;;;;5052037;28;20076;-69
2021/05/20 10:18:11;;;;;;;2.60;2.40;;;;;;;;;;5052218;28;20029;-70
2021/05/20 10:20:38;;;;;;;5.20;3.00;;;;;;;;;;5053383;28;20032;-71
2021/05/20 10:23:12;;;;;;;2.95;2.67;;;;;;;;;;5053571;28;20033;-71
2021/05/20 10:25:39;;;;;;;5.00;3.67;;;;;;;;;;5053540;28;20025;-70
2021/05/20 10:28:06;;;;;;;3.22;2.92;;;;;;;;;;5051944;28;20126;-69
2021/05/20 10:30:33;;;;;;;3.95;3.33;;;;;;;;;;5054718;28;20048;-71
2021/05/20 10:33:00;;;;;;;4.63;3.65;;;;;;;;;;5052384;28;20021;-71
2021/05/20 10:35:46;;;;;;;5.38;4.57;;;;;;;;;;5051845;28;20539;-69
2021/05/20 10:38:14;;;;;;;6.53;4.55;;;;;;;;;;5053244;28;20036;-71
2021/05/20 10:40:40;;;;;;;6.45;4.95;;;;;;;;;;5053128;28;20056;-69
2021/05/20 10:43:06;;;;;;;4.82;3.90;;;;;;;;;;5053089;28;20041;-69
2021/05/20 10:45:33;;;;;;;4.60;4.15;;;;;;;;;;5051783;28;20429;-68
2021/05/20 10:48:05;;;;;;;4.65;3.50;;;;;;;;;;5052616;28;20405;-70
2021/05/20 10:50:50;;;;;;;4.80;4.25;;;;;;;;;;5053010;28;20057;-71
2021/05/20 10:53:35;;;;;;;5.35;4.07;;;;;;;;;;5051731;28;20472;-70
2021/05/20 10:56:01;;;;;;;5.47;4.05;;;;;;;;;;5052612;28;20469;-70
2021/05/20 10:58:32;;;;;;;4.65;3.78;;;;;;;;;;5051492;28;20029;-69
2021/05/20 11:00:58;;;;;;;5.57;3.92;;;;;;;;;;5051280;28;20037;-69
2021/05/20 11:03:44;;;;;;;6.00;3.70;;;;;;;;;;5051724;28;20254;-69
2021/05/20 11:06:10;;;;;;;4.68;4.05;;;;;;;;;;5052602;28;20466;-71
2021/05/20 11:08:36;;;;;;;6.38;4.13;;;;;;;;;;5042862;28;20024;-70
2021/05/20 11:11:02;;;;;;;4.10;3.63;;;;;;;;;;5052631;28;20045;-70
2021/05/20 11:13:39;;;;;;;4.35;3.42;;;;;;;;;;5051161;28;20021;-70
2021/05/20 11:16:18;;;;;;;5.45;3.92;;;;;;;;;;5051052;28;20045;-71
2021/05/20 11:18:48;;;;;;;3.85;3.55;;;;;;;;;;5051306;28;20094;-69
2021/05/20 11:21:15;;;;;;;5.07;4.10;;;;;;;;;;5052755;28;20032;-70
2021/05/20 11:23:41;;;;;;;5.43;3.97;;;;;;;;;;5052935;28;20449;-70
2021/05/20 11:26:15;;;;;;;6.15;4.60;;;;;;;;;;5052654;28;20029;-74
2021/05/20 11:28:45;;;;;;;5.47;4.10;;;;;;;;;;5036323;28;20040;-71
2021/05/20 11:31:11;;;;;;;3.45;3.15;;;;;;;;;;5049806;28;20052;-71
2021/05/20 11:36:12;;;;;;;7.13;4.32;;;;;;;;;;5052731;28;20025;-71
2021/05/20 11:38:39;;;;;;;4.88;3.85;;;;;;;;;;5034710;28;20493;-71
2021/05/20 11:41:16;;;;;;;3.78;3.47;;;;;;;;;;5034791;28;20664;-69
2021/05/20 11:43:42;;;;;;;4.30;3.80;;;;;;;;;;5054007;28;20031;-70
2021/05/20 11:46:19;;;;;;;5.00;4.15;;;;;;;;;;5056532;28;20078;-69
2021/05/20 11:48:55;;;;;;;4.57;4.18;;;;;;;;;;5038631;28;20064;-71
2021/05/20 11:51:42;;;;;;;5.63;4.38;;;;;;;;;;5056490;28;20047;-70
2021/05/20 11:54:11;;;;;;;7.75;5.22;;;;;;;;;;5056199;28;20078;-69
2021/05/20 11:56:42;;;;;;;5.28;4.38;;;;;;;;;;5056429;28;20036;-70
2021/05/20 11:59:08;;;;;;;5.22;4.72;;;;;;;;;;5038417;28;20124;-71
2021/05/20 12:01:35;;;;;;;8.70;6.25;;;;;;;;;;5056222;28;20469;-70
2021/05/20 12:04:02;;;;;;;9.20;5.75;;;;;;;;;;5038451;28;20025;-70
2021/05/20 12:06:28;;;;;;;11.05;6.38;;;;;;;;;;5056122;28;20473;-69
2021/05/20 12:09:04;;;;;;;10.82;5.68;;;;;;;;;;5037472;28;20025;-68
2021/05/20 12:11:30;;;;;;;7.05;5.47;;;;;;;;;;5038148;28;20052;-68
2021/05/20 12:13:56;;;;;;;7.32;5.43;;;;;;;;;;5056132;28;20386;-70
2021/05/20 12:16:27;;;;;;;5.25;4.47;;;;;;;;;;5022619;28;20081;-71
2021/05/20 12:18:53;;;;;;;8.65;5.13;;;;;;;;;;5016278;28;20041;-70
2021/05/20 12:21:19;;;;;;;9.63;4.15;;;;;;;;;;5014894;28;20041;-70
2021/05/20 12:23:56;;;;;;;10.05;5.25;;;;;;;;;;5016255;28;20105;-70
2021/05/20 12:26:25;;;;;;;10.18;6.15;;;;;;;;;;5016017;28;20030;-73
2021/05/20 12:28:52;;;;;;;8.45;5.85;;;;;;;;;;5016051;28;20044;-71
2021/05/20 12:31:19;;;;;;;9.43;5.38;;;;;;;;;;5015945;28;20034;-70
2021/05/20 12:33:48;;;;;;;8.02;5.05;;;;;;;;;;5014686;28;20058;-71
2021/05/20 12:36:30;;;;;;;9.98;6.35;;;;;;;;;;5014635;28;20030;-69
2021/05/20 12:38:56;;;;;;;8.75;5.97;;;;;;;;;;5015979;28;20021;-71
2021/05/20 12:41:33;;;;;;;8.00;6.00;;;;;;;;;;5015793;28;20479;-69
2021/05/20 12:44:12;;;;;;;7.85;5.13;;;;;;;;;;5015838;28;20088;-70
2021/05/20 12:46:38;;;;;;;9.02;6.32;;;;;;;;;;5015755;28;20048;-69
2021/05/20 12:49:04;;;;;;;9.15;6.53;;;;;;;;;;5015703;28;20462;-69
2021/05/20 12:51:30;;;;;;;12.63;6.20;;;;;;;;;;5015702;28;20018;-70
2021/05/20 12:53:58;;;;;;;11.32;6.40;;;;;;;;;;5015462;28;20026;-69
2021/05/20 12:56:41;;;;;;;9.77;6.30;;;;;;;;;;5015085;28;20022;-70
2021/05/20 12:59:09;;;;;;;7.95;5.50;;;;;;;;;;5015549;28;20091;-71
2021/05/20 13:01:39;;;;;;;8.73;6.22;;;;;;;;;;5015576;28;20030;-69
2021/05/20 13:04:09;;;;;;;10.32;5.85;;;;;;;;;;5015517;28;20061;-70
2021/05/20 13:06:35;;;;;;;10.00;6.57;;;;;;;;;;5014070;28;20034;-70
2021/05/20 13:09:09;;;;;;;8.55;5.55;;;;;;;;;;5015345;28;20022;-69
2021/05/20 13:11:39;;;;;;;8.55;6.18;;;;;;;;;;5015387;28;20026;-70
2021/05/20 13:14:19;;;;;;;6.57;5.40;;;;;;;;;;5015583;28;20054;-72
2021/05/20 13:16:54;;;;;;;7.57;5.40;;;;;;;;;;5044630;28;20521;-70
2021/05/20 13:22:27;;;;;;;7.50;5.65;;;;;;;;;;5054790;28;20496;-69
2021/05/20 13:25:00;;;;;;;7.93;5.80;;;;;;;;;;5054737;28;20025;-71
2021/05/20 13:27:27;;;;;;;9.30;5.63;;;;;;;;;;5054693;28;20033;-71
2021/05/20 13:30:20;;;;;;;7.95;5.88;;;;;;;;;;5036623;28;20381;-69
2021/05/20 13:32:57;;;;;;;9.30;6.57;;;;;;;;;;5036758;28;20378;-69
2021/05/20 13:35:24;;;;;;;6.70;6.00;;;;;;;;;;5054636;28;20462;-69
2021/05/20 13:37:50;;;;;;;9.25;6.47;;;;;;;;;;5054484;28;20116;-71
2021/05/20 13:40:22;;;;;;;9.05;6.57;;;;;;;;;;5054446;28;20021;-68
2021/05/20 13:42:49;;;;;;;8.30;5.65;;;;;;;;;;5054452;28;20040;-69
2021/05/20 13:45:16;;;;;;;8.27;6.07;;;;;;;;;;5054365;28;20088;-68
2021/05/20 13:47:42;;;;;;;6.38;5.32;;;;;;;;;;5054182;28;20382;-68
2021/05/20 13:50:09;;;;;;;9.98;6.88;;;;;;;;;;5054249;28;20485;-70
2021/05/20 13:52:40;;;;;;;8.07;6.63;;;;;;;;;;5036278;28;20051;-74
2021/05/20 13:55:06;;;;;;;7.68;6.57;;;;;;;;;;5036346;28;20025;-70
2021/05/20 13:57:33;;;;;;;8.15;6.13;;;;;;;;;;5054116;28;20403;-68
2021/05/20 14:00:02;;;;;;;7.88;6.38;;;;;;;;;;5054028;28;20025;-70
2021/05/20 14:02:33;;;;;;;7.72;6.47;;;;;;;;;;5053960;28;20482;-70
2021/05/20 14:05:00;;;;;;;12.23;7.53;;;;;;;;;;5053650;28;20359;-70
2021/05/20 14:07:26;;;;;;;9.05;6.45;;;;;;;;;;5034949;28;20503;-71
2021/05/20 14:09:52;;;;;;;12.63;9.07;;;;;;;;;;5035995;28;20087;-70
2021/05/20 14:12:19;;;;;;;14.15;9.20;;;;;;;;;;5053871;28;20078;-70
2021/05/20 14:14:47;;;;;;;11.90;7.40;;;;;;;;;;5053522;28;20462;-71
2021/05/20 14:17:14;;;;;;;16.63;9.02;;;;;;;;;;5053800;28;20102;-70
2021/05/20 14:19:41;;;;;;;16.58;9.07;;;;;;;;;;5053721;28;20112;-70
2021/05/20 14:22:08;;;;;;;11.65;7.82;;;;;;;;;;5053640;28;20027;-69
2021/05/20 14:24:34;;;;;;;11.00;7.25;;;;;;;;;;5035625;28;20378;-69
2021/05/20 14:27:01;;;;;;;9.90;7.47;;;;;;;;;;5053511;28;20060;-70
2021/05/20 14:29:27;;;;;;;15.55;8.93;;;;;;;;;;5053530;28;20532;-70
2021/05/20 14:31:53;;;;;;;13.85;8.45;;;;;;;;;;5035521;28;20025;-70
2021/05/20 14:34:19;;;;;;;14.85;10.13;;;;;;;;;;5053160;28;20100;-68
2021/05/20 14:36:46;;;;;;;16.40;10.00;;;;;;;;;;5053381;28;20037;-72
2021/05/20 14:39:12;;;;;;;13.93;10.55;;;;;;;;;;5053392;28;20032;-72
2021/05/20 14:41:40;;;;;;;15.65;10.18;;;;;;;;;;5035409;28;20029;-70
2021/05/20 14:44:07;;;;;;;15.82;11.23;;;;;;;;;;5053383;28;20029;-70
2021/05/20 14:46:34;;;;;;;12.20;8.65;;;;;;;;;;5053206;28;20029;-70
2021/05/20 14:49:00;;;;;;;14.40;8.85;;;;;;;;;;5053171;28;20021;-71
2021/05/20 14:51:31;;;;;;;16.50;10.32;;;;;;;;;;5035368;28;20421;-70
2021/05/20 14:54:03;;;;;;;14.85;9.23;;;;;;;;;;5053248;28;20033;-68
2021/05/20 15:06:59;;;;;;;13.27;8.70;;;;;;;;;;5052879;28;20069;-70
2021/05/20 15:14:29;;;;;;;11.10;9.02;;;;;;;;;;5052964;28;20029;-69